createdAt,value
2023-05-22T00:02:01.521Z,93.01
2023-05-22T00:07:21.674Z,92.97
2023-05-22T00:12:14.010Z,92.77
2023-05-22T00:17:14.169Z,93.01
2023-05-22T00:22:13.897Z,93.12
2023-05-22T00:27:13.863Z,93.62
2023-05-22T00:32:13.812Z,92.96
2023-05-22T00:37:13.701Z,93.36
2023-05-22T00:42:13.613Z,94.17
2023-05-22T00:47:13.601Z,94.47
2023-05-22T00:52:13.516Z,93.87
2023-05-22T00:57:13.428Z,93.91
2023-05-22T01:02:13.531Z,93.71
2023-05-22T01:07:13.315Z,93.71
2023-05-22T01:12:13.211Z,93.60
2023-05-22T01:17:13.177Z,94.42
2023-05-22T01:22:13.149Z,93.91
2023-05-22T01:27:13.102Z,94.11
2023-05-22T01:32:12.976Z,94.56
2023-05-22T01:37:12.914Z,94.86
2023-05-22T01:42:12.838Z,95.01
2023-05-22T01:47:12.796Z,94.71
2023-05-22T01:52:12.714Z,95.21
2023-05-22T01:57:12.697Z,95.82
2023-05-22T02:02:12.691Z,95.31
2023-05-22T02:07:12.662Z,95.72
2023-05-22T02:12:12.461Z,95.82
2023-05-22T02:17:12.389Z,95.56
2023-05-22T02:22:12.308Z,95.76
2023-05-22T02:27:12.237Z,95.26
2023-05-22T02:32:12.157Z,94.95
2023-05-22T02:37:12.139Z,95.36
2023-05-22T02:42:12.013Z,95.36
2023-05-22T02:47:12.030Z,95.46
2023-05-22T02:52:11.908Z,95.61
2023-05-22T02:57:11.829Z,97.23
2023-05-22T03:02:11.811Z,96.92
2023-05-22T03:07:11.761Z,96.22
2023-05-22T03:12:11.601Z,96.01
2023-05-22T03:17:11.589Z,95.81
2023-05-22T03:22:11.493Z,96.01
2023-05-22T03:27:11.432Z,95.81
2023-05-22T03:32:11.355Z,95.50
2023-05-22T03:37:11.320Z,95.86
2023-05-22T03:42:11.249Z,96.46
2023-05-22T03:47:11.181Z,96.97
2023-05-22T03:52:11.129Z,96.66
2023-05-22T03:57:11.146Z,96.36
2023-05-22T04:02:13.026Z,96.46
2023-05-22T04:07:10.919Z,96.56
2023-05-22T04:12:10.822Z,96.56
2023-05-22T04:17:23.060Z,96.26
2023-05-22T04:22:14.316Z,96.10
2023-05-22T04:27:14.286Z,96.00
2023-05-22T04:32:14.195Z,96.51
2023-05-22T04:37:14.113Z,96.26
2023-05-22T04:42:14.084Z,95.95
2023-05-22T04:47:13.982Z,96.01
2023-05-22T04:52:13.938Z,95.81
2023-05-22T04:57:13.857Z,95.15
2023-05-22T05:02:13.853Z,94.60
2023-05-22T05:07:13.771Z,94.20
2023-05-22T05:12:13.660Z,93.65
2023-05-22T05:17:13.578Z,93.35
2023-05-22T05:22:13.527Z,94.06
2023-05-22T05:27:13.442Z,94.86
2023-05-22T05:32:13.487Z,95.22
2023-05-22T05:37:13.332Z,94.98
2023-05-22T05:42:13.284Z,94.18
2023-05-22T05:47:13.175Z,93.23
2023-05-22T05:52:13.143Z,92.58
2023-05-22T05:57:13.056Z,92.33
2023-05-22T06:02:13.083Z,90.82
2023-05-22T06:07:12.984Z,90.92
2023-05-22T06:12:12.993Z,90.28
2023-05-22T06:17:12.795Z,90.48
2023-05-22T06:22:12.792Z,89.97
2023-05-22T06:27:12.709Z,89.67
2023-05-22T06:32:12.745Z,89.43
2023-05-22T06:37:12.571Z,90.03
2023-05-22T06:42:12.644Z,90.23
2023-05-22T06:47:12.415Z,92.74
2023-05-22T06:52:12.366Z,93.24
2023-05-22T06:57:12.300Z,93.74
2023-05-22T07:02:12.326Z,94.15
2023-05-22T07:07:12.140Z,92.83
2023-05-22T07:12:12.105Z,92.59
2023-05-22T07:17:12.013Z,91.04
2023-05-22T07:22:11.958Z,91.60
2023-05-22T07:27:11.949Z,89.80
2023-05-22T07:32:11.900Z,87.65
2023-05-22T07:37:11.778Z,84.39
2023-05-22T07:42:11.788Z,84.27
2023-05-22T07:47:11.603Z,81.45
2023-05-22T07:52:11.589Z,78.70
2023-05-22T07:57:11.438Z,76.73
2023-05-22T08:02:11.570Z,74.68
2023-05-22T08:07:11.341Z,73.85
2023-05-22T08:12:11.325Z,69.82
2023-05-22T08:17:11.244Z,70.06
2023-05-22T08:22:11.264Z,72.95
2023-05-22T08:27:11.053Z,72.08
2023-05-22T08:32:11.054Z,66.78
2023-05-22T08:37:10.978Z,64.84
2023-05-22T08:42:10.894Z,62.02
2023-05-22T08:47:10.871Z,66.15
2023-05-22T08:52:10.877Z,66.35
2023-05-22T08:57:10.691Z,59.56
2023-05-22T09:02:10.628Z,59.15
2023-05-22T09:07:10.816Z,57.28
2023-05-22T09:12:10.633Z,56.01
2023-05-22T09:17:10.575Z,57.42
2023-05-22T09:22:10.456Z,56.82
2023-05-22T09:27:10.344Z,56.33
2023-05-22T09:32:10.264Z,59.58
2023-05-22T09:37:10.190Z,58.61
2023-05-22T09:42:10.127Z,60.03
2023-05-22T09:47:10.080Z,60.99
2023-05-22T09:52:09.982Z,61.21
2023-05-22T09:57:09.928Z,61.51
2023-05-22T10:02:09.910Z,58.56
2023-05-22T10:07:09.780Z,58.00
2023-05-22T10:12:09.726Z,58.23
2023-05-22T10:17:09.661Z,57.19
2023-05-22T10:22:09.593Z,58.59
2023-05-22T10:27:09.528Z,55.58
2023-05-22T10:32:09.463Z,53.74
2023-05-22T10:37:16.678Z,51.89
2023-05-22T10:42:10.381Z,54.25
2023-05-22T10:47:09.256Z,53.63
2023-05-22T10:52:09.283Z,55.66
2023-05-22T10:57:09.153Z,52.52
2023-05-22T11:02:11.678Z,53.16
2023-05-22T11:07:09.034Z,53.11
2023-05-22T11:12:08.985Z,55.08
2023-05-22T11:17:09.672Z,53.16
2023-05-22T11:22:09.271Z,51.84
2023-05-22T11:27:08.767Z,51.49
2023-05-22T11:32:08.902Z,51.64
2023-05-22T11:37:08.656Z,53.33
2023-05-22T11:42:08.578Z,52.72
2023-05-22T11:47:08.570Z,54.83
2023-05-22T11:52:08.495Z,55.45
2023-05-22T11:57:08.684Z,53.95
2023-05-22T12:02:08.283Z,55.66
2023-05-22T12:07:08.252Z,56.77
2023-05-22T12:12:08.331Z,57.33
2023-05-22T12:17:08.212Z,57.73
2023-05-22T12:22:08.119Z,55.24
2023-05-22T12:27:07.990Z,55.79
2023-05-22T12:32:07.986Z,57.53
2023-05-22T12:37:07.958Z,53.47
2023-05-22T12:42:07.827Z,57.92
2023-05-22T12:47:07.753Z,57.33
2023-05-22T12:52:07.699Z,55.32
2023-05-22T12:57:07.654Z,55.32
2023-05-22T13:02:07.537Z,54.55
2023-05-22T13:07:07.682Z,55.87
2023-05-22T13:12:07.450Z,58.04
2023-05-22T13:17:07.343Z,56.48
2023-05-22T13:22:07.281Z,55.77
2023-05-22T13:27:07.236Z,56.85
2023-05-22T13:32:07.142Z,59.12
2023-05-22T13:37:07.115Z,58.36
2023-05-22T13:42:06.999Z,59.34
2023-05-22T13:47:06.996Z,60.39
2023-05-22T13:52:06.911Z,61.18
2023-05-22T13:57:06.922Z,58.12
2023-05-22T14:02:06.909Z,59.50
2023-05-22T14:07:06.809Z,60.92
2023-05-22T14:12:06.665Z,58.05
2023-05-22T14:17:06.699Z,58.47
2023-05-22T14:22:06.557Z,60.31
2023-05-22T14:27:06.463Z,58.30
2023-05-22T14:32:06.396Z,60.44
2023-05-22T14:37:06.332Z,61.70
2023-05-22T14:42:06.276Z,61.00
2023-05-22T14:47:06.204Z,60.96
2023-05-22T14:52:06.128Z,60.80
2023-05-22T14:57:06.171Z,63.15
2023-05-22T15:02:06.102Z,65.06
2023-05-22T15:07:05.958Z,61.70
2023-05-22T15:12:05.917Z,63.94
2023-05-22T15:17:05.833Z,65.86
2023-05-22T15:22:18.414Z,65.75
2023-05-22T15:27:06.703Z,64.99
2023-05-22T15:32:05.622Z,65.39
2023-05-22T15:37:05.642Z,65.46
2023-05-22T15:42:06.831Z,65.69
2023-05-22T15:47:05.486Z,66.35
2023-05-22T15:52:05.385Z,68.33
2023-05-22T15:57:05.268Z,67.34
2023-05-22T16:02:05.250Z,67.57
2023-05-22T16:07:05.151Z,66.74
2023-05-22T16:12:05.081Z,66.74
2023-05-22T16:17:05.064Z,65.35
2023-05-22T16:22:05.013Z,66.74
2023-05-22T16:27:04.891Z,65.82
2023-05-22T16:32:04.904Z,65.32
2023-05-22T16:37:04.760Z,64.56
2023-05-22T16:42:04.707Z,65.98
2023-05-22T16:47:04.757Z,68.00
2023-05-22T16:52:04.585Z,68.70
2023-05-22T16:57:04.577Z,67.40
2023-05-22T17:02:04.464Z,68.73
2023-05-22T17:07:04.361Z,71.22
2023-05-22T17:12:04.307Z,69.16
2023-05-22T17:17:04.221Z,70.79
2023-05-22T17:22:04.166Z,70.45
2023-05-22T17:27:04.110Z,71.39
2023-05-22T17:32:04.104Z,72.52
2023-05-22T17:37:03.969Z,72.81
2023-05-22T17:42:03.919Z,72.95
2023-05-22T17:47:03.852Z,74.58
2023-05-22T17:52:03.839Z,75.05
2023-05-22T17:57:03.712Z,75.49
2023-05-22T18:02:03.705Z,76.69
2023-05-22T18:07:03.575Z,76.39
2023-05-22T18:12:03.601Z,76.09
2023-05-22T18:17:03.457Z,77.49
2023-05-22T18:22:03.347Z,76.39
2023-05-22T18:27:03.646Z,76.99
2023-05-22T18:32:03.379Z,77.43
2023-05-22T18:37:03.203Z,77.93
2023-05-22T18:42:03.119Z,78.67
2023-05-22T18:47:15.305Z,78.86
2023-05-22T18:52:07.584Z,79.91
2023-05-22T18:57:07.548Z,80.04
2023-05-22T19:02:07.457Z,80.88
2023-05-22T19:07:07.486Z,81.38
2023-05-22T19:12:07.391Z,81.82
2023-05-22T19:17:07.559Z,82.76
2023-05-22T19:22:07.246Z,82.76
2023-05-22T19:27:07.173Z,83.51
2023-05-22T19:32:07.125Z,84.35
2023-05-22T19:37:07.035Z,84.75
2023-05-22T19:42:06.909Z,84.25
2023-05-22T19:47:06.858Z,84.85
2023-05-22T19:52:06.798Z,85.39
2023-05-22T19:57:06.707Z,85.53
2023-05-22T20:02:06.682Z,85.94
2023-05-22T20:07:06.556Z,85.53
2023-05-22T20:12:06.511Z,85.44
2023-05-22T20:17:06.528Z,85.53
2023-05-22T20:22:06.377Z,85.44
2023-05-22T20:27:06.404Z,85.74
2023-05-22T20:32:06.343Z,86.18
2023-05-22T20:37:06.204Z,86.08
2023-05-22T20:42:06.105Z,86.18
2023-05-22T20:47:06.073Z,85.88
2023-05-22T20:52:06.058Z,86.18
2023-05-22T20:57:05.936Z,85.82
2023-05-22T21:02:05.879Z,86.12
2023-05-22T21:07:05.794Z,85.82
2023-05-22T21:12:05.740Z,85.82
2023-05-22T21:17:05.777Z,86.02
2023-05-22T21:22:05.586Z,86.26
2023-05-22T21:27:05.583Z,87.11
2023-05-22T21:32:05.474Z,87.01
2023-05-22T21:37:05.399Z,86.81
2023-05-22T21:42:05.322Z,87.31
2023-05-22T21:47:05.268Z,87.62
2023-05-22T21:52:05.203Z,87.92
2023-05-22T21:57:05.165Z,88.36
2023-05-22T22:02:05.100Z,88.76
2023-05-22T22:07:05.010Z,89.06
2023-05-22T22:12:05.782Z,89.47
2023-05-22T22:17:04.905Z,89.67
2023-05-22T22:22:04.787Z,90.07
2023-05-22T22:27:04.744Z,90.32
2023-05-22T22:32:04.777Z,90.32
2023-05-22T22:37:04.614Z,90.42
2023-05-22T22:42:04.565Z,90.17
2023-05-22T22:47:04.487Z,89.67
2023-05-22T22:52:04.386Z,89.37
2023-05-22T22:57:04.364Z,89.37
2023-05-22T23:02:04.319Z,89.06
2023-05-22T23:07:04.235Z,89.57
2023-05-22T23:12:04.139Z,89.57
2023-05-22T23:17:04.080Z,88.20
2023-05-22T23:22:04.036Z,86.18
2023-05-22T23:27:03.991Z,86.58
2023-05-22T23:32:03.892Z,86.29
2023-05-22T23:37:03.891Z,85.48
2023-05-22T23:42:03.787Z,85.31
2023-05-22T23:47:03.779Z,85.62
2023-05-22T23:52:03.661Z,85.42
2023-05-22T23:57:03.547Z,86.02
